createdAt,value
2019-05-07T00:02:25.006Z,7.17
2019-05-07T00:04:56.866Z,7.42
2019-05-07T00:07:28.624Z,7.45
2019-05-07T00:10:00.571Z,6.95
2019-05-07T00:12:32.529Z,6.83
2019-05-07T00:15:05.841Z,7.75
2019-05-07T00:17:37.493Z,9.57
2019-05-07T00:20:09.543Z,9.10
2019-05-07T00:22:41.961Z,9.93
2019-05-07T00:25:14.087Z,10.63
2019-05-07T00:27:45.761Z,10.70
2019-05-07T00:30:18.248Z,10.28
2019-05-07T00:32:50.194Z,9.25
2019-05-07T00:35:38.894Z,7.75
2019-05-07T00:38:13.560Z,8.13
2019-05-07T00:40:56.393Z,7.45
2019-05-07T00:43:32.120Z,6.55
2019-05-07T00:46:05.319Z,6.72
2019-05-07T00:48:37.452Z,6.85
2019-05-07T00:51:27.078Z,6.95
2019-05-07T00:53:59.142Z,6.55
2019-05-07T00:56:33.112Z,8.10
2019-05-07T00:59:04.302Z,9.28
2019-05-07T01:01:36.547Z,10.95
2019-05-07T01:04:08.207Z,10.15
2019-05-07T01:06:42.411Z,10.63
2019-05-07T01:09:13.871Z,9.58
2019-05-07T01:11:47.873Z,8.30
2019-05-07T01:14:20.051Z,8.13
2019-05-07T01:16:52.954Z,8.08
2019-05-07T01:19:24.707Z,7.05
2019-05-07T01:21:56.670Z,7.35
2019-05-07T01:24:28.531Z,6.55
2019-05-07T01:27:02.062Z,7.30
2019-05-07T01:29:33.478Z,7.23
2019-05-07T01:32:15.869Z,6.90
2019-05-07T01:34:58.294Z,7.65
2019-05-07T01:37:32.394Z,8.58
2019-05-07T01:40:03.554Z,7.95
2019-05-07T01:42:36.735Z,8.13
2019-05-07T01:45:09.523Z,8.80
2019-05-07T01:47:42.573Z,8.18
2019-05-07T01:50:14.372Z,8.25
2019-05-07T01:52:46.232Z,8.08
2019-05-07T01:55:18.298Z,7.53
2019-05-07T01:57:52.287Z,6.30
2019-05-07T02:00:23.541Z,6.85
2019-05-07T02:02:59.713Z,6.25
2019-05-07T02:05:52.729Z,5.80
2019-05-07T02:08:43.459Z,5.97
2019-05-07T02:11:21.743Z,6.12
2019-05-07T02:13:53.133Z,5.50
2019-05-07T02:16:24.979Z,5.83
2019-05-07T02:18:56.857Z,6.30
2019-05-07T02:21:28.514Z,7.90
2019-05-07T02:24:00.265Z,6.12
2019-05-07T02:26:32.295Z,6.60
2019-05-07T02:29:04.278Z,6.95
2019-05-07T02:31:36.372Z,6.50
2019-05-07T02:34:08.337Z,6.05
2019-05-07T02:36:43.288Z,6.20
2019-05-07T02:39:24.949Z,5.92
2019-05-07T02:41:56.916Z,6.20
2019-05-07T02:44:28.564Z,6.03
2019-05-07T02:47:16.923Z,5.60
2019-05-07T02:49:53.851Z,5.78
2019-05-07T02:52:27.184Z,6.15
2019-05-07T02:55:09.587Z,7.58
2019-05-07T02:57:43.445Z,6.97
2019-05-07T03:00:19.115Z,7.42
2019-05-07T03:02:48.355Z,6.97
2019-05-07T03:05:23.052Z,6.78
2019-05-07T03:07:53.871Z,6.97
2019-05-07T03:10:25.670Z,7.60
2019-05-07T03:12:57.614Z,7.62
2019-05-07T03:15:29.276Z,7.20
2019-05-07T03:18:03.356Z,6.90
2019-05-07T03:20:42.956Z,7.15
2019-05-07T03:23:16.336Z,7.80
2019-05-07T03:25:49.717Z,8.00
2019-05-07T03:28:23.314Z,8.18
2019-05-07T03:31:16.636Z,7.92
2019-05-07T03:33:55.289Z,7.67
2019-05-07T03:36:47.715Z,7.28
2019-05-07T03:39:18.149Z,7.87
2019-05-07T03:41:52.906Z,7.03
2019-05-07T03:44:28.362Z,7.90
2019-05-07T03:47:17.221Z,6.80
2019-05-07T03:49:49.386Z,6.60
2019-05-07T03:52:24.125Z,5.95
2019-05-07T03:54:54.363Z,5.83
2019-05-07T03:57:26.193Z,5.92
2019-05-07T03:59:58.241Z,6.92
2019-05-07T04:02:32.928Z,5.85
2019-05-07T04:05:04.246Z,5.53
2019-05-07T04:07:37.324Z,5.97
2019-05-07T04:10:10.392Z,6.17
2019-05-07T04:12:44.305Z,5.40
2019-05-07T04:15:19.441Z,5.27
2019-05-07T04:17:49.668Z,4.92
2019-05-07T04:20:24.020Z,4.70
2019-05-07T04:22:54.609Z,4.83
2019-05-07T04:25:37.454Z,4.58
2019-05-07T04:28:14.229Z,4.60
2019-05-07T04:30:45.885Z,4.45
2019-05-07T04:33:19.037Z,3.65
2019-05-07T04:36:02.913Z,3.50
2019-05-07T04:38:34.611Z,3.50
2019-05-07T04:41:06.159Z,3.77
2019-05-07T04:43:37.752Z,3.62
2019-05-07T04:46:09.841Z,3.70
2019-05-07T04:48:44.009Z,4.05
2019-05-07T04:51:16.720Z,3.80
2019-05-07T04:53:48.593Z,3.58
2019-05-07T04:56:23.573Z,3.45
2019-05-07T04:58:53.848Z,3.25
2019-05-07T05:01:27.223Z,3.22
2019-05-07T05:03:59.136Z,3.70
2019-05-07T05:06:35.500Z,3.20
2019-05-07T05:09:12.355Z,3.55
2019-05-07T05:14:15.661Z,3.72
2019-05-07T05:16:48.036Z,3.65
2019-05-07T05:19:19.894Z,3.83
2019-05-07T05:21:55.850Z,3.75
2019-05-07T05:24:29.040Z,3.62
2019-05-07T05:27:02.560Z,3.83
2019-05-07T05:29:35.526Z,3.77
2019-05-07T05:32:11.885Z,3.75
2019-05-07T05:34:43.649Z,3.80
2019-05-07T05:37:15.510Z,3.67
2019-05-07T05:39:47.355Z,4.08
2019-05-07T05:42:26.894Z,3.85
2019-05-07T05:44:58.853Z,3.90
2019-05-07T05:47:32.840Z,4.08
2019-05-07T05:50:08.006Z,3.80
2019-05-07T05:52:42.504Z,4.03
2019-05-07T05:55:14.587Z,4.17
2019-05-07T05:57:53.636Z,4.28
2019-05-07T06:00:36.660Z,4.17
2019-05-07T06:03:16.200Z,4.40
2019-05-07T06:05:49.780Z,4.65
2019-05-07T06:08:29.552Z,4.60
2019-05-07T06:11:09.195Z,4.05
2019-05-07T06:13:45.458Z,4.17
2019-05-07T06:16:18.961Z,3.95
2019-05-07T06:18:55.297Z,3.85
2019-05-07T06:21:45.199Z,3.70
2019-05-07T06:24:18.802Z,4.03
2019-05-07T06:26:52.230Z,3.40
2019-05-07T06:29:23.953Z,3.95
2019-05-07T06:31:57.337Z,3.60
2019-05-07T06:34:30.271Z,3.45
2019-05-07T06:37:02.376Z,4.03
2019-05-07T06:39:48.273Z,4.15
2019-05-07T06:42:22.217Z,4.28
2019-05-07T06:45:12.343Z,5.00
2019-05-07T06:47:44.333Z,4.70
2019-05-07T06:50:16.525Z,4.85
2019-05-07T06:52:48.178Z,5.87
2019-05-07T06:55:20.039Z,6.42
2019-05-07T06:57:53.022Z,5.90
2019-05-07T07:00:27.205Z,5.17
2019-05-07T07:05:35.366Z,5.53
2019-05-07T07:08:12.511Z,5.80
2019-05-07T07:11:02.742Z,5.60
2019-05-07T07:13:35.113Z,5.05
2019-05-07T07:16:07.071Z,5.03
2019-05-07T07:18:49.558Z,4.80
2019-05-07T07:21:12.483Z,4.85
2019-05-07T07:23:44.087Z,4.47
2019-05-07T07:26:15.843Z,4.90
2019-05-07T07:28:47.621Z,4.58
2019-05-07T07:31:31.723Z,4.12
2019-05-07T07:34:04.412Z,3.60
2019-05-07T07:36:37.621Z,3.73
2019-05-07T07:39:09.719Z,3.65
2019-05-07T07:41:43.891Z,3.70
2019-05-07T07:44:15.560Z,3.60
2019-05-07T07:46:47.504Z,3.30
2019-05-07T07:49:19.310Z,4.12
2019-05-07T07:51:52.601Z,4.20
2019-05-07T07:54:24.517Z,3.52
2019-05-07T07:56:58.119Z,3.70
2019-05-07T07:59:49.457Z,4.08
2019-05-07T08:02:28.875Z,3.50
2019-05-07T08:05:02.114Z,3.33
2019-05-07T08:07:35.088Z,3.22
2019-05-07T08:10:07.321Z,3.00
2019-05-07T08:12:38.877Z,3.15
2019-05-07T08:15:18.063Z,5.47
2019-05-07T08:17:44.658Z,3.83
2019-05-07T08:20:17.598Z,3.20
2019-05-07T08:22:52.681Z,3.05
2019-05-07T08:25:48.794Z,3.00
2019-05-07T08:28:23.118Z,3.58
2019-05-07T08:31:03.016Z,3.25
2019-05-07T08:33:39.339Z,2.83
2019-05-07T08:36:14.889Z,3.30
2019-05-07T08:38:52.899Z,3.20
2019-05-07T08:41:25.684Z,3.33
2019-05-07T08:44:11.547Z,3.50
2019-05-07T08:46:52.339Z,3.83
2019-05-07T08:49:35.740Z,3.47
2019-05-07T08:52:03.454Z,3.67
2019-05-07T08:54:34.979Z,3.62
2019-05-07T08:57:06.974Z,3.67
2019-05-07T08:59:38.804Z,4.03
2019-05-07T09:02:12.602Z,3.67
2019-05-07T09:04:44.470Z,3.95
2019-05-07T09:07:16.309Z,3.90
2019-05-07T09:09:48.391Z,3.45
2019-05-07T09:12:22.728Z,3.90
2019-05-07T09:17:24.790Z,4.53
2019-05-07T09:19:56.448Z,3.90
2019-05-07T09:22:28.431Z,4.20
2019-05-07T09:25:02.898Z,3.47
2019-05-07T09:30:17.598Z,4.00
2019-05-07T09:33:02.890Z,3.65
2019-05-07T09:35:39.874Z,3.87
2019-05-07T09:38:12.156Z,3.77
2019-05-07T09:40:44.013Z,3.60
2019-05-07T09:43:17.541Z,4.33
2019-05-07T09:45:49.147Z,4.45
2019-05-07T09:48:22.122Z,4.12
2019-05-07T09:50:54.697Z,4.00
2019-05-07T09:53:26.577Z,4.35
2019-05-07T09:55:58.422Z,4.12
2019-05-07T09:58:36.469Z,4.03
2019-05-07T10:01:04.084Z,4.47
2019-05-07T10:03:35.758Z,4.33
2019-05-07T10:06:07.746Z,4.15
2019-05-07T10:08:39.373Z,4.20
2019-05-07T10:11:13.695Z,4.43
2019-05-07T10:13:47.092Z,4.45
2019-05-07T10:18:52.025Z,4.35
2019-05-07T10:21:23.572Z,4.20
2019-05-07T10:23:55.227Z,4.62
2019-05-07T10:26:27.309Z,4.70
2019-05-07T10:28:59.152Z,4.47
2019-05-07T10:31:32.012Z,4.90
2019-05-07T10:34:04.003Z,4.90
2019-05-07T10:36:35.860Z,4.60
2019-05-07T10:39:08.857Z,4.65
2019-05-07T10:41:42.474Z,4.90
2019-05-07T10:47:02.466Z,5.00
2019-05-07T10:49:36.069Z,4.53
2019-05-07T10:54:38.867Z,5.17
2019-05-07T10:57:11.945Z,5.28
2019-05-07T10:59:43.716Z,4.83
2019-05-07T11:02:23.256Z,4.58
2019-05-07T11:04:55.116Z,4.65
2019-05-07T11:07:26.959Z,4.40
2019-05-07T11:09:58.838Z,4.50
2019-05-07T11:12:31.987Z,4.22
2019-05-07T11:15:05.119Z,4.30
2019-05-07T11:17:48.457Z,4.60
2019-05-07T11:20:22.622Z,5.25
2019-05-07T11:22:54.304Z,9.05
2019-05-07T11:25:26.177Z,8.13
2019-05-07T11:27:58.018Z,8.00
2019-05-07T11:30:31.971Z,5.97
2019-05-07T11:33:03.190Z,5.20
2019-05-07T11:35:35.258Z,5.60
2019-05-07T11:38:18.662Z,5.47
2019-05-07T11:40:42.699Z,5.50
2019-05-07T11:43:24.643Z,6.00
2019-05-07T11:45:59.041Z,6.65
2019-05-07T11:48:36.206Z,7.05
2019-05-07T11:51:15.205Z,6.25
2019-05-07T11:54:04.872Z,5.92
2019-05-07T11:56:37.243Z,5.30
2019-05-07T11:59:09.190Z,5.47
2019-05-07T12:01:47.201Z,5.75
2019-05-07T12:04:16.512Z,6.00
2019-05-07T12:06:48.474Z,6.40
2019-05-07T12:09:21.855Z,5.90
2019-05-07T12:11:53.509Z,5.80
2019-05-07T12:14:31.367Z,6.35
2019-05-07T12:16:58.574Z,5.60
2019-05-07T12:19:30.417Z,6.60
2019-05-07T12:22:02.753Z,5.85
2019-05-07T12:24:34.363Z,6.10
2019-05-07T12:27:06.533Z,7.20
2019-05-07T12:29:38.185Z,6.10
2019-05-07T12:32:22.098Z,5.80
2019-05-07T12:37:26.055Z,5.87
2019-05-07T12:39:57.917Z,6.08
2019-05-07T12:42:29.856Z,5.70
2019-05-07T12:45:02.958Z,5.62
2019-05-07T12:47:34.606Z,4.92
2019-05-07T12:50:07.389Z,4.70
2019-05-07T12:52:55.752Z,3.80
2019-05-07T12:55:35.190Z,4.50
2019-05-07T12:58:07.149Z,4.20
2019-05-07T13:00:56.100Z,4.35
2019-05-07T13:03:35.141Z,5.35
2019-05-07T13:06:06.901Z,5.28
2019-05-07T13:08:38.740Z,4.83
2019-05-07T13:11:13.096Z,4.40
2019-05-07T13:13:44.015Z,4.28
2019-05-07T13:16:16.065Z,4.33
2019-05-07T13:18:49.151Z,4.65
2019-05-07T13:21:22.589Z,4.47
2019-05-07T13:23:54.205Z,4.42
2019-05-07T13:26:26.593Z,4.67
2019-05-07T13:28:58.537Z,4.33
2019-05-07T13:31:32.814Z,5.08
2019-05-07T13:34:05.927Z,4.87
2019-05-07T13:36:39.383Z,5.00
2019-05-07T13:39:13.179Z,5.08
2019-05-07T13:41:48.702Z,4.97
2019-05-07T13:44:27.744Z,5.65
2019-05-07T13:47:02.045Z,5.80
2019-05-07T13:49:34.283Z,6.45
2019-05-07T13:52:06.507Z,5.42
2019-05-07T13:54:38.149Z,5.12
2019-05-07T13:57:11.975Z,5.15
2019-05-07T13:59:43.510Z,4.87
2019-05-07T14:02:17.007Z,4.85
2019-05-07T14:04:48.973Z,5.03
2019-05-07T14:07:21.737Z,5.85
2019-05-07T14:09:53.924Z,5.12
2019-05-07T14:12:25.787Z,5.47
2019-05-07T14:14:57.748Z,5.20
2019-05-07T14:17:30.017Z,5.17
2019-05-07T14:20:04.902Z,5.37
2019-05-07T14:22:35.274Z,5.10
2019-05-07T14:25:07.958Z,4.70
2019-05-07T14:27:39.807Z,4.37
2019-05-07T14:30:13.014Z,4.35
2019-05-07T14:32:55.409Z,4.53
2019-05-07T14:35:28.805Z,4.35
2019-05-07T14:38:08.023Z,4.47
2019-05-07T14:40:40.104Z,5.05
2019-05-07T14:43:16.454Z,5.45
2019-05-07T14:45:48.330Z,10.88
2019-05-07T14:48:19.882Z,6.58
2019-05-07T14:50:53.027Z,4.92
2019-05-07T14:53:24.816Z,5.03
2019-05-07T14:55:56.674Z,8.95
2019-05-07T14:58:28.538Z,8.23
2019-05-07T15:01:02.421Z,6.67
2019-05-07T15:03:34.003Z,8.73
2019-05-07T15:06:05.959Z,6.78
2019-05-07T15:08:37.928Z,7.30
2019-05-07T15:11:10.108Z,7.30
2019-05-07T15:13:42.751Z,8.68
2019-05-07T15:16:14.816Z,9.20
2019-05-07T15:18:52.960Z,5.65
2019-05-07T15:21:24.721Z,6.33
2019-05-07T15:23:56.763Z,7.30
2019-05-07T15:26:28.951Z,5.10
2019-05-07T15:29:03.168Z,3.50
2019-05-07T15:31:36.869Z,3.33
2019-05-07T15:34:08.833Z,4.10
2019-05-07T15:36:42.378Z,4.53
2019-05-07T15:39:14.085Z,4.87
2019-05-07T15:41:45.930Z,5.08
2019-05-07T15:44:17.914Z,4.80
2019-05-07T15:46:52.125Z,5.12
2019-05-07T15:49:23.791Z,5.00
2019-05-07T15:51:57.371Z,5.20
2019-05-07T15:54:29.435Z,5.05
2019-05-07T15:57:03.032Z,5.33
2019-05-07T15:59:35.117Z,4.92
2019-05-07T16:02:17.916Z,6.33
2019-05-07T16:04:50.000Z,6.55
2019-05-07T16:07:22.531Z,7.35
2019-05-07T16:09:55.358Z,7.23
2019-05-07T16:12:26.996Z,7.50
2019-05-07T16:14:59.185Z,7.35
2019-05-07T16:17:32.977Z,7.30
2019-05-07T16:20:05.769Z,7.78
2019-05-07T16:22:52.608Z,7.58
2019-05-07T16:25:25.052Z,7.70
2019-05-07T16:27:58.041Z,8.80
2019-05-07T16:30:29.680Z,8.88
2019-05-07T16:33:02.299Z,9.48
2019-05-07T16:35:33.930Z,8.68
2019-05-07T16:38:05.881Z,8.40
2019-05-07T16:40:37.938Z,6.95
2019-05-07T16:43:11.915Z,6.78
2019-05-07T16:45:43.312Z,7.12
2019-05-07T16:48:15.083Z,6.80
2019-05-07T16:50:46.915Z,6.72
2019-05-07T16:53:27.509Z,7.33
2019-05-07T16:55:52.361Z,7.05
2019-05-07T16:58:28.776Z,7.65
2019-05-07T17:01:02.383Z,7.15
2019-05-07T17:03:39.021Z,7.90
2019-05-07T17:06:12.437Z,7.00
2019-05-07T17:09:04.464Z,7.22
2019-05-07T17:11:37.758Z,7.25
2019-05-07T17:14:12.722Z,7.58
2019-05-07T17:16:43.817Z,7.62
2019-05-07T17:19:16.090Z,7.65
2019-05-07T17:21:48.184Z,7.80
2019-05-07T17:24:22.204Z,10.65
2019-05-07T17:26:53.638Z,10.45
2019-05-07T17:29:25.386Z,8.90
2019-05-07T17:31:57.257Z,8.15
2019-05-07T17:34:29.112Z,7.00
2019-05-07T17:37:02.464Z,6.75
2019-05-07T17:39:34.464Z,6.80
2019-05-07T17:42:06.226Z,6.87
2019-05-07T17:44:38.073Z,8.08
2019-05-07T17:47:09.948Z,8.25
2019-05-07T17:49:42.751Z,7.50
2019-05-07T17:52:14.484Z,8.18
2019-05-07T17:54:46.329Z,8.75
2019-05-07T17:57:18.189Z,8.03
2019-05-07T17:59:52.453Z,8.03
2019-05-07T18:02:34.317Z,8.98
2019-05-07T18:05:07.634Z,9.05
2019-05-07T18:07:39.377Z,8.85
2019-05-07T18:10:12.537Z,10.20
2019-05-07T18:12:44.628Z,8.60
2019-05-07T18:15:16.572Z,9.60
2019-05-07T18:18:00.873Z,10.75
2019-05-07T18:20:33.313Z,12.33
2019-05-07T18:23:08.704Z,14.23
2019-05-07T18:25:38.984Z,12.53
2019-05-07T18:28:12.295Z,14.47
2019-05-07T18:30:44.115Z,12.60
2019-05-07T18:33:17.430Z,10.93
2019-05-07T18:35:52.575Z,11.40
2019-05-07T18:38:24.527Z,11.15
2019-05-07T18:40:56.373Z,11.45
2019-05-07T18:43:28.436Z,11.78
2019-05-07T18:46:02.249Z,11.25
2019-05-07T18:48:33.689Z,17.50
2019-05-07T18:51:06.399Z,20.65
2019-05-07T18:53:38.354Z,15.43
2019-05-07T18:56:10.092Z,12.58
2019-05-07T18:58:42.735Z,12.30
2019-05-07T19:01:15.782Z,12.47
2019-05-07T19:03:47.944Z,13.50
2019-05-07T19:06:22.319Z,12.47
2019-05-07T19:08:54.124Z,12.70
2019-05-07T19:11:26.291Z,11.78
2019-05-07T19:13:57.943Z,13.03
2019-05-07T19:16:32.186Z,12.88
2019-05-07T19:19:03.407Z,12.68
2019-05-07T19:21:35.352Z,13.80
2019-05-07T19:24:07.122Z,13.38
2019-05-07T19:26:38.781Z,14.90
2019-05-07T19:29:12.423Z,15.63
2019-05-07T19:31:44.137Z,17.05
2019-05-07T19:34:15.984Z,22.58
2019-05-07T19:36:47.754Z,23.20
2019-05-07T19:39:19.824Z,26.85
2019-05-07T19:41:52.476Z,29.30
2019-05-07T19:44:24.268Z,28.60
2019-05-07T19:46:56.122Z,31.73
2019-05-07T19:49:27.981Z,33.88
2019-05-07T19:52:01.738Z,35.10
2019-05-07T19:54:33.454Z,32.85
2019-05-07T19:57:05.609Z,32.53
2019-05-07T19:59:37.244Z,27.27
2019-05-07T20:02:12.243Z,27.37
2019-05-07T20:04:44.057Z,27.90
2019-05-07T20:07:16.248Z,25.02
2019-05-07T20:09:47.863Z,24.55
2019-05-07T20:12:19.927Z,22.67
2019-05-07T20:14:51.890Z,22.27
2019-05-07T20:17:23.871Z,21.07
2019-05-07T20:19:55.832Z,21.73
2019-05-07T20:22:27.881Z,21.60
2019-05-07T20:25:13.280Z,19.55
2019-05-07T20:27:34.374Z,19.52
2019-05-07T20:30:07.888Z,19.82
2019-05-07T20:32:42.813Z,19.27
2019-05-07T20:35:15.804Z,19.62
2019-05-07T20:37:47.749Z,18.82
2019-05-07T20:40:19.506Z,19.20
2019-05-07T20:42:52.484Z,18.67
2019-05-07T20:45:24.369Z,18.35
2019-05-07T20:47:56.103Z,18.42
2019-05-07T20:50:28.215Z,17.50
2019-05-07T20:53:01.905Z,16.20
2019-05-07T20:55:47.159Z,16.60
2019-05-07T20:58:19.133Z,16.55
2019-05-07T21:00:52.639Z,16.17
2019-05-07T21:03:24.312Z,16.60
2019-05-07T21:05:56.237Z,17.05
2019-05-07T21:08:28.039Z,16.35
2019-05-07T21:11:02.357Z,15.98
2019-05-07T21:13:34.969Z,16.67
2019-05-07T21:16:06.750Z,16.90
2019-05-07T21:18:38.687Z,17.62
2019-05-07T21:21:12.483Z,16.42
2019-05-07T21:23:43.896Z,17.60
2019-05-07T21:26:15.545Z,17.42
2019-05-07T21:28:47.502Z,17.17
2019-05-07T21:31:19.470Z,17.70
2019-05-07T21:33:52.392Z,17.00
2019-05-07T21:36:24.192Z,17.10
2019-05-07T21:38:56.071Z,17.15
2019-05-07T21:41:27.930Z,16.20
2019-05-07T21:43:59.908Z,17.92
2019-05-07T21:46:32.977Z,16.90
2019-05-07T21:49:04.971Z,16.33
2019-05-07T21:51:36.907Z,17.02
2019-05-07T21:54:23.683Z,16.77
2019-05-07T21:56:58.038Z,16.87
2019-05-07T21:59:35.495Z,16.27
2019-05-07T22:02:16.995Z,19.92
2019-05-07T22:04:49.075Z,16.85
2019-05-07T22:07:22.726Z,16.55
2019-05-07T22:09:54.539Z,16.12
2019-05-07T22:12:26.424Z,17.77
2019-05-07T22:14:58.245Z,17.23
2019-05-07T22:17:30.221Z,22.67
2019-05-07T22:20:03.063Z,17.35
2019-05-07T22:22:35.176Z,17.07
2019-05-07T22:25:07.956Z,18.65
2019-05-07T22:27:42.234Z,18.05
2019-05-07T22:30:15.768Z,17.32
2019-05-07T22:32:55.283Z,16.12
2019-05-07T22:35:28.899Z,15.43
2019-05-07T22:38:18.796Z,16.42
2019-05-07T22:40:52.279Z,16.85
2019-05-07T22:43:24.133Z,16.93
2019-05-07T22:45:55.807Z,17.65
2019-05-07T22:48:27.554Z,18.12
2019-05-07T22:50:59.529Z,17.67
2019-05-07T22:53:32.803Z,16.87
2019-05-07T22:56:05.586Z,16.80
2019-05-07T22:58:38.983Z,17.40
2019-05-07T23:01:13.087Z,17.65
2019-05-07T23:03:44.871Z,16.70
2019-05-07T23:06:16.713Z,16.70
2019-05-07T23:08:48.695Z,17.60
2019-05-07T23:11:22.932Z,17.05
2019-05-07T23:13:54.937Z,15.68
2019-05-07T23:16:26.731Z,17.23
2019-05-07T23:18:59.006Z,16.20
2019-05-07T23:21:32.012Z,16.75
2019-05-07T23:24:04.856Z,17.35
2019-05-07T23:26:49.673Z,16.30
2019-05-07T23:29:11.860Z,13.45
2019-05-07T23:31:43.630Z,14.65
2019-05-07T23:34:15.693Z,14.55
2019-05-07T23:36:48.893Z,14.23
2019-05-07T23:39:22.288Z,15.20
2019-05-07T23:42:13.903Z,14.85
2019-05-07T23:44:45.766Z,15.20
2019-05-07T23:47:17.935Z,16.05
2019-05-07T23:49:52.232Z,15.45
2019-05-07T23:52:23.293Z,16.02
2019-05-07T23:54:55.151Z,15.85
2019-05-07T23:57:27.010Z,16.02
2019-05-07T23:59:58.766Z,16.75
